sensor_id;sensor_type;location;lat;lon;timestamp;P1;durP1;ratioP1;P2;durP2;ratioP2
33579;SDS011;19909;43.644;-79.438;2023-07-16T00:00:05;3.63;;;2.75;;
33579;SDS011;19909;43.644;-79.438;2023-07-16T00:02:34;5.30;;;2.40;;
33579;SDS011;19909;43.644;-79.438;2023-07-16T00:05:00;3.05;;;2.75;;
33579;SDS011;19909;43.644;-79.438;2023-07-16T00:07:26;4.32;;;2.72;;
33579;SDS011;19909;43.644;-79.438;2023-07-16T00:09:52;3.38;;;2.20;;
33579;SDS011;19909;43.644;-79.438;2023-07-16T00:12:18;2.95;;;2.20;;
33579;SDS011;19909;43.644;-79.438;2023-07-16T00:14:45;3.78;;;2.60;;
33579;SDS011;19909;43.644;-79.438;2023-07-16T00:17:11;4.95;;;2.72;;
33579;SDS011;19909;43.644;-79.438;2023-07-16T00:19:37;2.97;;;2.47;;
33579;SDS011;19909;43.644;-79.438;2023-07-16T00:22:03;4.93;;;2.10;;
33579;SDS011;19909;43.644;-79.438;2023-07-16T00:24:29;5.32;;;2.35;;
33579;SDS011;19909;43.644;-79.438;2023-07-16T00:26:55;3.42;;;2.50;;
33579;SDS011;19909;43.644;-79.438;2023-07-16T00:29:22;2.95;;;2.20;;
33579;SDS011;19909;43.644;-79.438;2023-07-16T00:31:48;3.00;;;2.65;;
33579;SDS011;19909;43.644;-79.438;2023-07-16T00:34:14;2.80;;;2.50;;
33579;SDS011;19909;43.644;-79.438;2023-07-16T00:36:40;4.53;;;2.72;;
33579;SDS011;19909;43.644;-79.438;2023-07-16T00:39:07;4.38;;;2.40;;
33579;SDS011;19909;43.644;-79.438;2023-07-16T00:41:34;6.32;;;3.25;;
33579;SDS011;19909;43.644;-79.438;2023-07-16T00:44:00;6.88;;;3.65;;
33579;SDS011;19909;43.644;-79.438;2023-07-16T00:46:26;6.15;;;3.05;;
33579;SDS011;19909;43.644;-79.438;2023-07-16T00:48:52;6.28;;;2.90;;
33579;SDS011;19909;43.644;-79.438;2023-07-16T00:51:18;5.05;;;3.40;;
33579;SDS011;19909;43.644;-79.438;2023-07-16T00:53:47;5.80;;;3.10;;
33579;SDS011;19909;43.644;-79.438;2023-07-16T00:56:15;8.32;;;3.75;;
33579;SDS011;19909;43.644;-79.438;2023-07-16T00:58:45;4.75;;;3.20;;
33579;SDS011;19909;43.644;-79.438;2023-07-16T01:01:11;6.28;;;3.08;;
33579;SDS011;19909;43.644;-79.438;2023-07-16T01:03:38;3.45;;;2.78;;
33579;SDS011;19909;43.644;-79.438;2023-07-16T01:06:07;5.32;;;3.13;;
33579;SDS011;19909;43.644;-79.438;2023-07-16T01:08:56;9.57;;;3.30;;
33579;SDS011;19909;43.644;-79.438;2023-07-16T01:11:28;8.35;;;3.10;;
33579;SDS011;19909;43.644;-79.438;2023-07-16T01:13:55;10.18;;;3.78;;
33579;SDS011;19909;43.644;-79.438;2023-07-16T01:16:22;10.35;;;3.55;;
33579;SDS011;19909;43.644;-79.438;2023-07-16T01:18:49;9.30;;;2.92;;
33579;SDS011;19909;43.644;-79.438;2023-07-16T01:21:18;4.70;;;3.00;;
33579;SDS011;19909;43.644;-79.438;2023-07-16T01:27:11;3.80;;;2.58;;
33579;SDS011;19909;43.644;-79.438;2023-07-16T01:29:54;4.93;;;3.05;;
33579;SDS011;19909;43.644;-79.438;2023-07-16T01:32:25;4.80;;;3.13;;
33579;SDS011;19909;43.644;-79.438;2023-07-16T01:34:53;6.10;;;3.85;;
33579;SDS011;19909;43.644;-79.438;2023-07-16T01:37:20;9.65;;;6.13;;
33579;SDS011;19909;43.644;-79.438;2023-07-16T01:39:46;9.98;;;6.18;;
33579;SDS011;19909;43.644;-79.438;2023-07-16T01:42:12;15.60;;;7.40;;
33579;SDS011;19909;43.644;-79.438;2023-07-16T01:44:39;16.63;;;8.43;;
33579;SDS011;19909;43.644;-79.438;2023-07-16T01:49:32;11.45;;;8.18;;
33579;SDS011;19909;43.644;-79.438;2023-07-16T01:52:01;13.40;;;8.68;;
33579;SDS011;19909;43.644;-79.438;2023-07-16T01:54:28;11.80;;;7.18;;
33579;SDS011;19909;43.644;-79.438;2023-07-16T01:56:54;12.70;;;7.38;;
33579;SDS011;19909;43.644;-79.438;2023-07-16T01:59:21;14.05;;;7.40;;
33579;SDS011;19909;43.644;-79.438;2023-07-16T02:01:47;10.85;;;6.93;;
33579;SDS011;19909;43.644;-79.438;2023-07-16T02:04:13;9.75;;;7.28;;
33579;SDS011;19909;43.644;-79.438;2023-07-16T02:06:39;11.60;;;6.57;;
33579;SDS011;19909;43.644;-79.438;2023-07-16T02:09:05;10.70;;;6.22;;
33579;SDS011;19909;43.644;-79.438;2023-07-16T02:11:31;10.65;;;5.93;;
33579;SDS011;19909;43.644;-79.438;2023-07-16T02:13:57;9.25;;;6.20;;
33579;SDS011;19909;43.644;-79.438;2023-07-16T02:16:23;7.32;;;5.78;;
33579;SDS011;19909;43.644;-79.438;2023-07-16T02:18:49;7.95;;;5.45;;
33579;SDS011;19909;43.644;-79.438;2023-07-16T02:21:15;9.05;;;5.65;;
33579;SDS011;19909;43.644;-79.438;2023-07-16T02:23:42;8.90;;;6.05;;
33579;SDS011;19909;43.644;-79.438;2023-07-16T02:26:08;8.05;;;5.13;;
33579;SDS011;19909;43.644;-79.438;2023-07-16T02:28:34;9.15;;;5.43;;
33579;SDS011;19909;43.644;-79.438;2023-07-16T02:31:00;8.15;;;5.38;;
33579;SDS011;19909;43.644;-79.438;2023-07-16T02:33:27;8.85;;;5.97;;
33579;SDS011;19909;43.644;-79.438;2023-07-16T02:35:53;9.35;;;5.32;;
33579;SDS011;19909;43.644;-79.438;2023-07-16T02:38:19;7.15;;;4.53;;
33579;SDS011;19909;43.644;-79.438;2023-07-16T02:40:46;11.50;;;5.63;;
33579;SDS011;19909;43.644;-79.438;2023-07-16T02:43:13;6.45;;;5.25;;
33579;SDS011;19909;43.644;-79.438;2023-07-16T02:45:40;7.70;;;4.65;;
33579;SDS011;19909;43.644;-79.438;2023-07-16T02:48:06;7.80;;;4.55;;
33579;SDS011;19909;43.644;-79.438;2023-07-16T02:50:33;11.05;;;5.00;;
33579;SDS011;19909;43.644;-79.438;2023-07-16T02:53:01;8.00;;;5.68;;
33579;SDS011;19909;43.644;-79.438;2023-07-16T02:55:28;6.63;;;4.63;;
33579;SDS011;19909;43.644;-79.438;2023-07-16T02:57:54;7.55;;;4.85;;
33579;SDS011;19909;43.644;-79.438;2023-07-16T03:00:21;11.43;;;4.63;;
33579;SDS011;19909;43.644;-79.438;2023-07-16T03:02:47;6.82;;;4.90;;
33579;SDS011;19909;43.644;-79.438;2023-07-16T03:05:15;7.90;;;5.28;;
33579;SDS011;19909;43.644;-79.438;2023-07-16T03:07:42;7.93;;;4.78;;
33579;SDS011;19909;43.644;-79.438;2023-07-16T03:10:08;9.55;;;4.60;;
33579;SDS011;19909;43.644;-79.438;2023-07-16T03:12:35;11.25;;;4.35;;
33579;SDS011;19909;43.644;-79.438;2023-07-16T03:15:01;6.28;;;4.47;;
33579;SDS011;19909;43.644;-79.438;2023-07-16T03:17:27;5.15;;;4.22;;
33579;SDS011;19909;43.644;-79.438;2023-07-16T03:19:53;6.40;;;4.60;;
33579;SDS011;19909;43.644;-79.438;2023-07-16T03:22:19;7.57;;;4.40;;
33579;SDS011;19909;43.644;-79.438;2023-07-16T03:24:46;6.63;;;4.10;;
33579;SDS011;19909;43.644;-79.438;2023-07-16T03:27:12;6.40;;;3.42;;
33579;SDS011;19909;43.644;-79.438;2023-07-16T03:29:38;7.45;;;3.67;;
33579;SDS011;19909;43.644;-79.438;2023-07-16T03:32:04;9.30;;;4.72;;
33579;SDS011;19909;43.644;-79.438;2023-07-16T03:34:30;5.10;;;3.80;;
33579;SDS011;19909;43.644;-79.438;2023-07-16T03:36:56;8.05;;;4.65;;
33579;SDS011;19909;43.644;-79.438;2023-07-16T03:39:23;6.43;;;3.90;;
33579;SDS011;19909;43.644;-79.438;2023-07-16T03:41:49;6.57;;;3.47;;
33579;SDS011;19909;43.644;-79.438;2023-07-16T03:44:15;8.10;;;3.95;;
33579;SDS011;19909;43.644;-79.438;2023-07-16T03:46:41;8.15;;;3.88;;
33579;SDS011;19909;43.644;-79.438;2023-07-16T03:49:07;9.90;;;4.18;;
33579;SDS011;19909;43.644;-79.438;2023-07-16T03:51:34;10.13;;;4.22;;
33579;SDS011;19909;43.644;-79.438;2023-07-16T03:54:00;11.43;;;4.32;;
33579;SDS011;19909;43.644;-79.438;2023-07-16T03:56:26;7.50;;;3.88;;
33579;SDS011;19909;43.644;-79.438;2023-07-16T03:58:52;4.85;;;3.92;;
33579;SDS011;19909;43.644;-79.438;2023-07-16T04:01:18;8.85;;;3.92;;
33579;SDS011;19909;43.644;-79.438;2023-07-16T04:03:44;7.40;;;4.20;;
33579;SDS011;19909;43.644;-79.438;2023-07-16T04:06:11;6.75;;;3.67;;
33579;SDS011;19909;43.644;-79.438;2023-07-16T04:08:38;7.75;;;3.53;;
33579;SDS011;19909;43.644;-79.438;2023-07-16T04:11:04;9.85;;;3.70;;
33579;SDS011;19909;43.644;-79.438;2023-07-16T04:13:31;4.75;;;3.38;;
33579;SDS011;19909;43.644;-79.438;2023-07-16T04:15:57;5.97;;;3.35;;
33579;SDS011;19909;43.644;-79.438;2023-07-16T04:18:23;4.35;;;3.38;;
33579;SDS011;19909;43.644;-79.438;2023-07-16T04:20:50;7.50;;;3.53;;
33579;SDS011;19909;43.644;-79.438;2023-07-16T04:23:16;4.72;;;3.03;;
33579;SDS011;19909;43.644;-79.438;2023-07-16T04:28:08;7.50;;;3.05;;
33579;SDS011;19909;43.644;-79.438;2023-07-16T04:30:35;6.45;;;2.58;;
33579;SDS011;19909;43.644;-79.438;2023-07-16T04:33:02;4.63;;;2.75;;
33579;SDS011;19909;43.644;-79.438;2023-07-16T04:35:29;5.55;;;2.88;;
33579;SDS011;19909;43.644;-79.438;2023-07-16T04:37:55;5.25;;;3.20;;
33579;SDS011;19909;43.644;-79.438;2023-07-16T04:40:21;5.78;;;2.90;;
33579;SDS011;19909;43.644;-79.438;2023-07-16T04:42:48;5.35;;;2.60;;
33579;SDS011;19909;43.644;-79.438;2023-07-16T04:45:14;5.20;;;2.60;;
33579;SDS011;19909;43.644;-79.438;2023-07-16T04:47:40;4.03;;;2.30;;
33579;SDS011;19909;43.644;-79.438;2023-07-16T04:50:06;5.97;;;2.35;;
33579;SDS011;19909;43.644;-79.438;2023-07-16T04:52:32;6.45;;;2.45;;
33579;SDS011;19909;43.644;-79.438;2023-07-16T04:54:58;6.22;;;2.38;;
33579;SDS011;19909;43.644;-79.438;2023-07-16T04:57:24;6.15;;;2.55;;
33579;SDS011;19909;43.644;-79.438;2023-07-16T04:59:50;6.93;;;3.22;;
33579;SDS011;19909;43.644;-79.438;2023-07-16T05:02:17;5.53;;;2.33;;
33579;SDS011;19909;43.644;-79.438;2023-07-16T05:04:43;7.50;;;2.42;;
33579;SDS011;19909;43.644;-79.438;2023-07-16T05:07:12;4.65;;;2.80;;
33579;SDS011;19909;43.644;-79.438;2023-07-16T05:09:39;3.83;;;2.20;;
33579;SDS011;19909;43.644;-79.438;2023-07-16T05:12:05;6.15;;;2.22;;
33579;SDS011;19909;43.644;-79.438;2023-07-16T05:14:31;4.90;;;1.98;;
33579;SDS011;19909;43.644;-79.438;2023-07-16T05:17:10;4.53;;;2.75;;
33579;SDS011;19909;43.644;-79.438;2023-07-16T05:19:36;7.10;;;2.50;;
33579;SDS011;19909;43.644;-79.438;2023-07-16T05:22:02;5.22;;;2.50;;
33579;SDS011;19909;43.644;-79.438;2023-07-16T05:24:28;6.97;;;2.65;;
33579;SDS011;19909;43.644;-79.438;2023-07-16T05:26:54;3.58;;;2.22;;
33579;SDS011;19909;43.644;-79.438;2023-07-16T05:29:20;4.72;;;2.13;;
33579;SDS011;19909;43.644;-79.438;2023-07-16T05:31:46;4.82;;;2.03;;
33579;SDS011;19909;43.644;-79.438;2023-07-16T05:34:13;7.32;;;2.40;;
33579;SDS011;19909;43.644;-79.438;2023-07-16T05:36:40;6.15;;;2.33;;
33579;SDS011;19909;43.644;-79.438;2023-07-16T05:39:07;9.60;;;2.47;;
33579;SDS011;19909;43.644;-79.438;2023-07-16T05:41:33;11.15;;;2.30;;
33579;SDS011;19909;43.644;-79.438;2023-07-16T05:44:00;6.32;;;2.85;;
33579;SDS011;19909;43.644;-79.438;2023-07-16T05:46:26;6.80;;;2.60;;
33579;SDS011;19909;43.644;-79.438;2023-07-16T05:48:52;6.45;;;2.70;;
33579;SDS011;19909;43.644;-79.438;2023-07-16T05:51:18;13.43;;;2.63;;
33579;SDS011;19909;43.644;-79.438;2023-07-16T05:53:44;10.73;;;2.70;;
33579;SDS011;19909;43.644;-79.438;2023-07-16T05:56:10;7.95;;;2.72;;
33579;SDS011;19909;43.644;-79.438;2023-07-16T05:58:37;5.75;;;3.10;;
33579;SDS011;19909;43.644;-79.438;2023-07-16T06:01:04;6.88;;;2.90;;
33579;SDS011;19909;43.644;-79.438;2023-07-16T06:03:30;11.20;;;3.20;;
33579;SDS011;19909;43.644;-79.438;2023-07-16T06:05:56;10.10;;;2.85;;
33579;SDS011;19909;43.644;-79.438;2023-07-16T06:08:22;7.90;;;3.05;;
33579;SDS011;19909;43.644;-79.438;2023-07-16T06:10:50;11.82;;;2.83;;
33579;SDS011;19909;43.644;-79.438;2023-07-16T06:13:16;9.23;;;2.50;;
33579;SDS011;19909;43.644;-79.438;2023-07-16T06:15:43;7.30;;;2.70;;
33579;SDS011;19909;43.644;-79.438;2023-07-16T06:18:09;7.43;;;2.85;;
33579;SDS011;19909;43.644;-79.438;2023-07-16T06:20:35;5.18;;;2.00;;
33579;SDS011;19909;43.644;-79.438;2023-07-16T06:23:01;4.55;;;2.08;;
33579;SDS011;19909;43.644;-79.438;2023-07-16T06:25:28;6.97;;;2.08;;
33579;SDS011;19909;43.644;-79.438;2023-07-16T06:27:54;5.25;;;2.58;;
33579;SDS011;19909;43.644;-79.438;2023-07-16T06:30:20;3.10;;;2.00;;
33579;SDS011;19909;43.644;-79.438;2023-07-16T06:32:46;5.90;;;2.40;;
33579;SDS011;19909;43.644;-79.438;2023-07-16T06:35:12;9.73;;;1.75;;
33579;SDS011;19909;43.644;-79.438;2023-07-16T06:37:38;4.75;;;2.13;;
33579;SDS011;19909;43.644;-79.438;2023-07-16T06:40:05;8.35;;;2.20;;
33579;SDS011;19909;43.644;-79.438;2023-07-16T06:42:32;3.72;;;2.33;;
33579;SDS011;19909;43.644;-79.438;2023-07-16T06:44:58;6.38;;;2.00;;
33579;SDS011;19909;43.644;-79.438;2023-07-16T06:47:24;8.05;;;2.22;;
33579;SDS011;19909;43.644;-79.438;2023-07-16T06:49:50;5.25;;;2.40;;
33579;SDS011;19909;43.644;-79.438;2023-07-16T06:52:20;5.80;;;2.35;;
33579;SDS011;19909;43.644;-79.438;2023-07-16T06:54:47;5.97;;;2.40;;
33579;SDS011;19909;43.644;-79.438;2023-07-16T06:57:13;4.95;;;2.05;;
33579;SDS011;19909;43.644;-79.438;2023-07-16T06:59:40;5.95;;;2.15;;
33579;SDS011;19909;43.644;-79.438;2023-07-16T07:02:06;6.82;;;2.10;;
33579;SDS011;19909;43.644;-79.438;2023-07-16T07:04:32;11.45;;;2.85;;
33579;SDS011;19909;43.644;-79.438;2023-07-16T07:06:58;4.28;;;2.10;;
33579;SDS011;19909;43.644;-79.438;2023-07-16T07:09:24;5.90;;;2.90;;
33579;SDS011;19909;43.644;-79.438;2023-07-16T07:11:50;7.80;;;2.50;;
33579;SDS011;19909;43.644;-79.438;2023-07-16T07:14:16;4.18;;;1.77;;
33579;SDS011;19909;43.644;-79.438;2023-07-16T07:16:42;4.20;;;1.60;;
33579;SDS011;19909;43.644;-79.438;2023-07-16T07:19:08;2.10;;;1.83;;
33579;SDS011;19909;43.644;-79.438;2023-07-16T07:21:35;6.25;;;1.85;;
33579;SDS011;19909;43.644;-79.438;2023-07-16T07:24:01;4.50;;;1.75;;
33579;SDS011;19909;43.644;-79.438;2023-07-16T07:26:27;4.63;;;2.28;;
33579;SDS011;19909;43.644;-79.438;2023-07-16T07:28:53;4.68;;;1.98;;
33579;SDS011;19909;43.644;-79.438;2023-07-16T07:31:19;4.93;;;1.75;;
33579;SDS011;19909;43.644;-79.438;2023-07-16T07:33:45;3.42;;;1.60;;
33579;SDS011;19909;43.644;-79.438;2023-07-16T07:36:11;5.28;;;2.10;;
33579;SDS011;19909;43.644;-79.438;2023-07-16T07:38:37;3.25;;;2.05;;
33579;SDS011;19909;43.644;-79.438;2023-07-16T07:41:06;7.28;;;2.30;;
33579;SDS011;19909;43.644;-79.438;2023-07-16T07:43:32;3.97;;;1.70;;
33579;SDS011;19909;43.644;-79.438;2023-07-16T07:45:58;5.43;;;2.20;;
33579;SDS011;19909;43.644;-79.438;2023-07-16T07:48:25;8.80;;;2.40;;
33579;SDS011;19909;43.644;-79.438;2023-07-16T07:50:51;3.05;;;1.98;;
33579;SDS011;19909;43.644;-79.438;2023-07-16T07:53:17;4.70;;;1.60;;
33579;SDS011;19909;43.644;-79.438;2023-07-16T07:55:44;4.50;;;2.22;;
33579;SDS011;19909;43.644;-79.438;2023-07-16T07:58:10;4.60;;;2.00;;
33579;SDS011;19909;43.644;-79.438;2023-07-16T08:00:38;4.68;;;2.15;;
33579;SDS011;19909;43.644;-79.438;2023-07-16T08:03:04;5.43;;;1.73;;
33579;SDS011;19909;43.644;-79.438;2023-07-16T08:05:29;2.85;;;2.03;;
33579;SDS011;19909;43.644;-79.438;2023-07-16T08:07:56;3.78;;;1.88;;
33579;SDS011;19909;43.644;-79.438;2023-07-16T08:10:22;2.78;;;1.55;;
33579;SDS011;19909;43.644;-79.438;2023-07-16T08:15:18;2.35;;;1.80;;
33579;SDS011;19909;43.644;-79.438;2023-07-16T08:17:45;2.70;;;1.58;;
33579;SDS011;19909;43.644;-79.438;2023-07-16T08:20:11;2.67;;;1.90;;
33579;SDS011;19909;43.644;-79.438;2023-07-16T08:22:37;3.75;;;1.60;;
33579;SDS011;19909;43.644;-79.438;2023-07-16T08:25:04;6.30;;;1.95;;
33579;SDS011;19909;43.644;-79.438;2023-07-16T08:27:31;5.15;;;2.10;;
33579;SDS011;19909;43.644;-79.438;2023-07-16T08:29:58;6.53;;;2.25;;
33579;SDS011;19909;43.644;-79.438;2023-07-16T08:34:50;6.45;;;2.60;;
33579;SDS011;19909;43.644;-79.438;2023-07-16T08:37:16;8.02;;;2.22;;
33579;SDS011;19909;43.644;-79.438;2023-07-16T08:39:42;4.38;;;1.85;;
33579;SDS011;19909;43.644;-79.438;2023-07-16T08:42:09;5.05;;;1.88;;
33579;SDS011;19909;43.644;-79.438;2023-07-16T08:44:36;2.00;;;1.55;;
33579;SDS011;19909;43.644;-79.438;2023-07-16T08:47:04;1.95;;;1.73;;
33579;SDS011;19909;43.644;-79.438;2023-07-16T08:49:31;7.47;;;2.20;;
33579;SDS011;19909;43.644;-79.438;2023-07-16T08:52:00;2.03;;;1.70;;
33579;SDS011;19909;43.644;-79.438;2023-07-16T08:54:27;4.25;;;1.95;;
33579;SDS011;19909;43.644;-79.438;2023-07-16T08:56:54;3.55;;;1.52;;
33579;SDS011;19909;43.644;-79.438;2023-07-16T08:59:21;4.85;;;1.90;;
33579;SDS011;19909;43.644;-79.438;2023-07-16T09:01:47;1.77;;;1.40;;
33579;SDS011;19909;43.644;-79.438;2023-07-16T09:04:14;1.98;;;1.48;;
33579;SDS011;19909;43.644;-79.438;2023-07-16T09:06:41;3.15;;;1.52;;
33579;SDS011;19909;43.644;-79.438;2023-07-16T09:09:08;2.70;;;1.75;;
33579;SDS011;19909;43.644;-79.438;2023-07-16T09:11:47;3.58;;;1.55;;
33579;SDS011;19909;43.644;-79.438;2023-07-16T09:14:20;4.28;;;1.95;;
33579;SDS011;19909;43.644;-79.438;2023-07-16T09:16:48;8.30;;;2.85;;
33579;SDS011;19909;43.644;-79.438;2023-07-16T09:19:15;2.58;;;1.98;;
33579;SDS011;19909;43.644;-79.438;2023-07-16T09:21:47;2.40;;;1.88;;
33579;SDS011;19909;43.644;-79.438;2023-07-16T09:24:17;5.15;;;2.00;;
33579;SDS011;19909;43.644;-79.438;2023-07-16T09:26:51;4.82;;;1.98;;
33579;SDS011;19909;43.644;-79.438;2023-07-16T09:29:18;6.82;;;1.95;;
33579;SDS011;19909;43.644;-79.438;2023-07-16T09:31:54;1.83;;;1.70;;
33579;SDS011;19909;43.644;-79.438;2023-07-16T09:34:22;2.47;;;1.95;;
33579;SDS011;19909;43.644;-79.438;2023-07-16T09:36:48;5.75;;;2.00;;
33579;SDS011;19909;43.644;-79.438;2023-07-16T09:39:18;4.90;;;1.70;;
33579;SDS011;19909;43.644;-79.438;2023-07-16T09:41:50;5.13;;;1.75;;
33579;SDS011;19909;43.644;-79.438;2023-07-16T09:44:16;3.17;;;1.80;;
33579;SDS011;19909;43.644;-79.438;2023-07-16T09:46:43;6.57;;;1.88;;
33579;SDS011;19909;43.644;-79.438;2023-07-16T09:49:10;2.65;;;1.92;;
33579;SDS011;19909;43.644;-79.438;2023-07-16T09:51:37;1.58;;;1.48;;
33579;SDS011;19909;43.644;-79.438;2023-07-16T09:54:04;7.18;;;2.05;;
33579;SDS011;19909;43.644;-79.438;2023-07-16T09:56:38;8.25;;;1.80;;
33579;SDS011;19909;43.644;-79.438;2023-07-16T09:59:10;3.80;;;1.63;;
33579;SDS011;19909;43.644;-79.438;2023-07-16T10:01:39;4.53;;;1.73;;
33579;SDS011;19909;43.644;-79.438;2023-07-16T10:04:12;3.67;;;1.83;;
33579;SDS011;19909;43.644;-79.438;2023-07-16T10:06:52;1.95;;;1.70;;
33579;SDS011;19909;43.644;-79.438;2023-07-16T10:09:37;1.85;;;1.60;;
33579;SDS011;19909;43.644;-79.438;2023-07-16T10:12:10;1.90;;;1.70;;
33579;SDS011;19909;43.644;-79.438;2023-07-16T10:14:41;3.75;;;1.50;;
33579;SDS011;19909;43.644;-79.438;2023-07-16T10:17:11;7.13;;;1.80;;
33579;SDS011;19909;43.644;-79.438;2023-07-16T10:22:32;2.22;;;1.58;;
33579;SDS011;19909;43.644;-79.438;2023-07-16T10:25:01;3.60;;;1.45;;
33579;SDS011;19909;43.644;-79.438;2023-07-16T10:27:32;4.88;;;2.05;;
33579;SDS011;19909;43.644;-79.438;2023-07-16T10:30:02;5.22;;;2.38;;
33579;SDS011;19909;43.644;-79.438;2023-07-16T10:32:30;1.40;;;1.30;;
33579;SDS011;19909;43.644;-79.438;2023-07-16T10:34:58;5.65;;;1.50;;
33579;SDS011;19909;43.644;-79.438;2023-07-16T10:37:24;2.22;;;1.33;;
33579;SDS011;19909;43.644;-79.438;2023-07-16T10:39:52;2.47;;;1.48;;
33579;SDS011;19909;43.644;-79.438;2023-07-16T10:42:19;5.75;;;1.40;;
33579;SDS011;19909;43.644;-79.438;2023-07-16T10:44:54;3.08;;;1.63;;
33579;SDS011;19909;43.644;-79.438;2023-07-16T10:47:24;2.40;;;1.50;;
33579;SDS011;19909;43.644;-79.438;2023-07-16T10:49:55;3.15;;;1.50;;
33579;SDS011;19909;43.644;-79.438;2023-07-16T10:52:22;2.50;;;1.73;;
33579;SDS011;19909;43.644;-79.438;2023-07-16T10:54:51;3.15;;;1.73;;
33579;SDS011;19909;43.644;-79.438;2023-07-16T10:57:23;3.60;;;1.45;;
33579;SDS011;19909;43.644;-79.438;2023-07-16T10:59:53;1.95;;;1.50;;
33579;SDS011;19909;43.644;-79.438;2023-07-16T11:02:22;2.75;;;1.73;;
33579;SDS011;19909;43.644;-79.438;2023-07-16T11:04:50;2.03;;;1.75;;
33579;SDS011;19909;43.644;-79.438;2023-07-16T11:07:20;1.75;;;1.30;;
33579;SDS011;19909;43.644;-79.438;2023-07-16T11:09:48;4.53;;;2.15;;
33579;SDS011;19909;43.644;-79.438;2023-07-16T11:12:17;2.40;;;1.27;;
33579;SDS011;19909;43.644;-79.438;2023-07-16T11:14:47;1.83;;;1.35;;
33579;SDS011;19909;43.644;-79.438;2023-07-16T11:17:23;3.35;;;1.30;;
33579;SDS011;19909;43.644;-79.438;2023-07-16T11:19:50;2.35;;;1.38;;
33579;SDS011;19909;43.644;-79.438;2023-07-16T11:22:17;1.30;;;1.05;;
33579;SDS011;19909;43.644;-79.438;2023-07-16T11:24:45;2.55;;;1.30;;
33579;SDS011;19909;43.644;-79.438;2023-07-16T11:27:29;2.70;;;1.30;;
33579;SDS011;19909;43.644;-79.438;2023-07-16T11:29:57;1.58;;;1.30;;
33579;SDS011;19909;43.644;-79.438;2023-07-16T11:32:28;2.60;;;1.30;;
33579;SDS011;19909;43.644;-79.438;2023-07-16T11:34:55;3.20;;;1.40;;
33579;SDS011;19909;43.644;-79.438;2023-07-16T11:37:26;2.03;;;1.25;;
33579;SDS011;19909;43.644;-79.438;2023-07-16T11:40:00;2.33;;;1.25;;
33579;SDS011;19909;43.644;-79.438;2023-07-16T11:42:31;2.45;;;1.35;;
33579;SDS011;19909;43.644;-79.438;2023-07-16T11:44:59;5.32;;;1.33;;
33579;SDS011;19909;43.644;-79.438;2023-07-16T11:47:25;3.45;;;1.17;;
33579;SDS011;19909;43.644;-79.438;2023-07-16T11:49:52;3.67;;;1.55;;
33579;SDS011;19909;43.644;-79.438;2023-07-16T11:52:20;1.75;;;1.17;;
33579;SDS011;19909;43.644;-79.438;2023-07-16T11:54:51;1.50;;;1.40;;
33579;SDS011;19909;43.644;-79.438;2023-07-16T11:57:17;2.47;;;1.08;;
33579;SDS011;19909;43.644;-79.438;2023-07-16T11:59:44;1.85;;;1.27;;
33579;SDS011;19909;43.644;-79.438;2023-07-16T12:02:10;1.80;;;1.10;;
33579;SDS011;19909;43.644;-79.438;2023-07-16T12:04:37;4.50;;;1.20;;
33579;SDS011;19909;43.644;-79.438;2023-07-16T12:07:03;3.75;;;1.30;;
33579;SDS011;19909;43.644;-79.438;2023-07-16T12:09:30;1.15;;;1.05;;
33579;SDS011;19909;43.644;-79.438;2023-07-16T12:11:56;1.20;;;1.10;;
33579;SDS011;19909;43.644;-79.438;2023-07-16T12:14:22;6.60;;;1.40;;
33579;SDS011;19909;43.644;-79.438;2023-07-16T12:16:48;1.15;;;1.05;;
33579;SDS011;19909;43.644;-79.438;2023-07-16T12:19:14;4.78;;;1.35;;
33579;SDS011;19909;43.644;-79.438;2023-07-16T12:21:40;2.13;;;1.17;;
33579;SDS011;19909;43.644;-79.438;2023-07-16T12:24:07;2.70;;;1.08;;
33579;SDS011;19909;43.644;-79.438;2023-07-16T12:26:33;2.42;;;1.23;;
33579;SDS011;19909;43.644;-79.438;2023-07-16T12:28:59;1.00;;;0.90;;
33579;SDS011;19909;43.644;-79.438;2023-07-16T12:31:32;2.03;;;1.05;;
33579;SDS011;19909;43.644;-79.438;2023-07-16T12:33:59;3.03;;;1.13;;
33579;SDS011;19909;43.644;-79.438;2023-07-16T12:36:27;2.15;;;1.27;;
33579;SDS011;19909;43.644;-79.438;2023-07-16T12:38:53;1.40;;;1.02;;
33579;SDS011;19909;43.644;-79.438;2023-07-16T12:41:19;2.13;;;1.35;;
33579;SDS011;19909;43.644;-79.438;2023-07-16T12:43:46;1.65;;;1.13;;
33579;SDS011;19909;43.644;-79.438;2023-07-16T12:46:12;1.95;;;0.98;;
33579;SDS011;19909;43.644;-79.438;2023-07-16T12:48:38;1.85;;;1.08;;
33579;SDS011;19909;43.644;-79.438;2023-07-16T12:51:04;1.38;;;1.25;;
33579;SDS011;19909;43.644;-79.438;2023-07-16T12:53:31;1.25;;;1.13;;
33579;SDS011;19909;43.644;-79.438;2023-07-16T12:55:58;1.83;;;1.50;;
33579;SDS011;19909;43.644;-79.438;2023-07-16T12:58:24;1.30;;;1.20;;
33579;SDS011;19909;43.644;-79.438;2023-07-16T13:00:51;3.17;;;1.45;;
33579;SDS011;19909;43.644;-79.438;2023-07-16T13:03:17;3.75;;;1.38;;
33579;SDS011;19909;43.644;-79.438;2023-07-16T13:05:43;1.15;;;1.05;;
33579;SDS011;19909;43.644;-79.438;2023-07-16T13:08:10;1.10;;;0.90;;
33579;SDS011;19909;43.644;-79.438;2023-07-16T13:10:36;1.38;;;1.17;;
33579;SDS011;19909;43.644;-79.438;2023-07-16T13:13:02;3.38;;;1.27;;
33579;SDS011;19909;43.644;-79.438;2023-07-16T13:15:29;4.40;;;1.55;;
33579;SDS011;19909;43.644;-79.438;2023-07-16T13:17:55;1.30;;;1.00;;
33579;SDS011;19909;43.644;-79.438;2023-07-16T13:20:22;2.10;;;1.40;;
33579;SDS011;19909;43.644;-79.438;2023-07-16T13:22:49;5.50;;;1.13;;
33579;SDS011;19909;43.644;-79.438;2023-07-16T13:25:15;3.72;;;1.73;;
33579;SDS011;19909;43.644;-79.438;2023-07-16T13:27:42;2.92;;;1.30;;
33579;SDS011;19909;43.644;-79.438;2023-07-16T13:30:08;4.47;;;1.70;;
33579;SDS011;19909;43.644;-79.438;2023-07-16T13:32:34;1.80;;;1.20;;
33579;SDS011;19909;43.644;-79.438;2023-07-16T13:35:00;1.92;;;1.20;;
33579;SDS011;19909;43.644;-79.438;2023-07-16T13:37:26;2.92;;;2.17;;
33579;SDS011;19909;43.644;-79.438;2023-07-16T13:39:53;2.33;;;1.85;;
33579;SDS011;19909;43.644;-79.438;2023-07-16T13:42:19;1.98;;;1.50;;
33579;SDS011;19909;43.644;-79.438;2023-07-16T13:44:45;2.13;;;1.73;;
33579;SDS011;19909;43.644;-79.438;2023-07-16T13:47:11;3.22;;;1.50;;
33579;SDS011;19909;43.644;-79.438;2023-07-16T13:49:38;4.50;;;2.10;;
33579;SDS011;19909;43.644;-79.438;2023-07-16T13:52:04;2.28;;;1.42;;
33579;SDS011;19909;43.644;-79.438;2023-07-16T13:54:30;2.25;;;1.50;;
33579;SDS011;19909;43.644;-79.438;2023-07-16T13:56:56;3.58;;;1.55;;
33579;SDS011;19909;43.644;-79.438;2023-07-16T13:59:22;1.80;;;1.60;;
33579;SDS011;19909;43.644;-79.438;2023-07-16T14:01:58;3.60;;;1.60;;
33579;SDS011;19909;43.644;-79.438;2023-07-16T14:04:25;3.03;;;1.60;;
33579;SDS011;19909;43.644;-79.438;2023-07-16T14:06:52;2.03;;;1.45;;
33579;SDS011;19909;43.644;-79.438;2023-07-16T14:09:18;2.00;;;1.38;;
33579;SDS011;19909;43.644;-79.438;2023-07-16T14:11:45;2.08;;;1.88;;
33579;SDS011;19909;43.644;-79.438;2023-07-16T14:14:16;4.43;;;1.83;;
33579;SDS011;19909;43.644;-79.438;2023-07-16T14:16:46;2.78;;;2.05;;
33579;SDS011;19909;43.644;-79.438;2023-07-16T14:19:12;2.75;;;2.40;;
33579;SDS011;19909;43.644;-79.438;2023-07-16T14:21:39;2.95;;;2.65;;
33579;SDS011;19909;43.644;-79.438;2023-07-16T14:24:05;8.07;;;7.00;;
33579;SDS011;19909;43.644;-79.438;2023-07-16T14:26:32;10.43;;;8.88;;
33579;SDS011;19909;43.644;-79.438;2023-07-16T14:28:59;9.32;;;8.40;;
33579;SDS011;19909;43.644;-79.438;2023-07-16T14:31:25;11.20;;;7.90;;
33579;SDS011;19909;43.644;-79.438;2023-07-16T14:33:51;8.73;;;7.93;;
33579;SDS011;19909;43.644;-79.438;2023-07-16T14:36:17;10.10;;;9.10;;